Time;durP1;ratioP1;P1;durP2;ratioP2;P2;SDS_P1;SDS_P2;PMS_P1;PMS_P2;Temp;Humidity;BMP_temperature;BMP_pressure;BME280_temperature;BME280_humidity;BME280_pressure;Samples;Min_cycle;Max_cycle;Signal;HPM_P1;HPM_P2
2022/05/10 00:00:29;;;;;;;1999.90;999.90;;;;;;;-143.90;100.00;55031.78;2067781;28;20034;-66
2022/05/10 00:01:51;;;;;;;1999.90;999.90;;;;;;;-143.90;100.00;55055.63;2066953;28;20701;-65
2022/05/10 00:03:12;;;;;;;1999.90;999.90;;;;;;;-143.90;100.00;55011.94;2066945;28;20040;-65
2022/05/10 00:04:33;;;;;;;1999.90;999.90;;;;;;;-143.90;100.00;55007.97;2066935;28;20037;-65
2022/05/10 00:05:54;;;;;;;1999.90;999.90;;;;;;;-143.90;100.00;55071.50;2067857;28;20037;-66
2022/05/10 00:07:17;;;;;;;1999.90;999.90;;;;;;;-143.90;100.00;55006.00;2068111;28;20049;-66
2022/05/10 00:08:39;;;;;;;1999.90;999.90;;;;;;;-143.90;100.00;55007.97;2072380;28;20644;-66
2022/05/10 00:10:00;;;;;;;1999.90;999.90;;;;;;;-143.90;100.00;54996.06;2064475;28;20038;-66
2022/05/10 00:11:21;;;;;;;1999.90;999.90;;;;;;;-143.90;100.00;54996.06;2065689;28;20053;-66
2022/05/10 00:12:42;;;;;;;1999.90;999.90;;;;;;;-143.90;100.00;55000.03;2067199;28;20033;-66
2022/05/10 00:14:03;;;;;;;1999.90;999.90;;;;;;;-143.90;100.00;55025.84;2069574;28;20037;-66
2022/05/10 00:15:24;;;;;;;1999.90;999.90;;;;;;;-143.90;100.00;54998.03;2066043;28;20415;-66
2022/05/10 00:16:45;;;;;;;1999.90;999.90;;;;;;;-143.90;100.00;54994.06;2067891;28;20064;-66
2022/05/10 00:18:09;;;;;;;1999.90;999.90;;;;;;;-143.90;100.00;55051.66;2064303;28;20210;-66
2022/05/10 00:19:30;;;;;;;1999.90;999.90;;;;;;;-143.90;100.00;54972.22;2064395;28;20037;-67
2022/05/10 00:20:51;;;;;;;1999.90;999.90;;;;;;;-143.90;100.00;55015.91;2063764;28;20037;-65
2022/05/10 00:22:12;;;;;;;1999.90;999.90;;;;;;;-143.90;100.00;55011.94;2071929;28;20524;-65
2022/05/10 00:23:32;;;;;;;1999.90;999.90;;;;;;;-143.90;100.00;55015.91;2065222;28;20044;-66
2022/05/10 00:24:53;;;;;;;1999.90;999.90;;;;;;;-143.90;100.00;55039.75;2066534;28;20033;-65
2022/05/10 00:26:14;;;;;;;1999.90;999.90;;;;;;;-143.90;100.00;55000.03;2064437;28;20042;-65
2022/05/10 00:27:35;;;;;;;1999.90;999.90;;;;;;;-143.90;100.00;54976.19;2066073;28;20523;-65
2022/05/10 00:28:56;;;;;;;1999.90;999.90;;;;;;;-143.90;100.00;54984.16;2066817;28;20287;-65
2022/05/10 00:30:17;;;;;;;1999.90;999.90;;;;;;;-143.90;100.00;55002.00;2067171;28;20752;-66
2022/05/10 00:31:38;;;;;;;1999.90;999.90;;;;;;;-143.90;100.00;54992.09;2065489;28;20049;-65
2022/05/10 00:32:59;;;;;;;1999.90;999.90;;;;;;;-143.90;100.00;55011.94;2063145;28;20123;-65
2022/05/10 00:34:19;;;;;;;1999.90;999.90;;;;;;;-143.90;100.00;55027.81;2066616;28;20048;-65
2022/05/10 00:35:40;;;;;;;1999.90;999.90;;;;;;;-143.90;100.00;55025.84;2067568;28;20037;-65
2022/05/10 00:37:01;;;;;;;1999.90;999.90;;;;;;;-143.90;100.00;55047.69;2067270;28;20073;-65
2022/05/10 00:38:27;;;;;;;1999.90;999.90;;;;;;;-143.90;100.00;55035.78;2066973;28;20067;-65
2022/05/10 00:39:48;;;;;;;1999.90;999.90;;;;;;;-143.90;100.00;55006.00;2066819;28;20483;-66
2022/05/10 00:41:38;;;;;;;1999.90;999.90;;;;;;;-143.90;100.00;55027.81;2066774;28;20583;-66
2022/05/10 00:43:11;;;;;;;1999.90;999.90;;;;;;;-143.90;100.00;55017.91;2066010;28;20042;-66
2022/05/10 00:44:40;;;;;;;1999.90;999.90;;;;;;;-143.90;100.00;54988.13;2062237;28;20140;-66
2022/05/10 00:46:07;;;;;;;1999.90;999.90;;;;;;;-143.90;100.00;55045.69;2061713;28;20038;-66
2022/05/10 00:47:32;;;;;;;1999.90;999.90;;;;;;;-143.90;100.00;55039.75;2064419;28;20077;-66
2022/05/10 00:49:02;;;;;;;1999.90;999.90;;;;;;;-143.90;100.00;55025.84;2065218;28;20057;-66
2022/05/10 00:50:29;;;;;;;1999.90;999.90;;;;;;;-143.90;100.00;54988.13;2066464;28;20049;-66
2022/05/10 00:51:56;;;;;;;1999.90;999.90;;;;;;;-143.90;100.00;55000.03;2064214;28;20113;-66
2022/05/10 00:54:06;;;;;;;1999.90;999.90;;;;;;;-143.90;100.00;55019.88;2065452;28;20034;-66
2022/05/10 00:55:36;;;;;;;1999.90;999.90;;;;;;;-143.90;100.00;55015.91;2040814;28;20066;-66
2022/05/10 00:57:11;;;;;;;1999.90;999.90;;;;;;;-143.90;100.00;55013.94;2040904;28;20113;-66
2022/05/10 00:58:46;;;;;;;1999.90;999.90;;;;;;;-143.90;100.00;55043.72;2034630;28;20072;-66
2022/05/10 01:00:11;;;;;;;1999.90;999.90;;;;;;;-143.90;100.00;54980.19;2033364;29;20407;-66
2022/05/10 01:01:34;;;;;;;1999.90;999.90;;;;;;;-143.90;100.00;55004.00;2063623;28;20068;-66
2022/05/10 01:03:09;;;;;;;1999.90;999.90;;;;;;;-143.90;100.00;55004.00;2062294;28;20045;-66
2022/05/10 01:04:37;;;;;;;1999.90;999.90;;;;;;;-143.90;100.00;55039.75;2063280;28;20053;-64
2022/05/10 01:06:09;;;;;;;1999.90;999.90;;;;;;;-143.90;100.00;54984.16;2066435;28;20921;-64
2022/05/10 01:07:34;;;;;;;1999.90;999.90;;;;;;;-143.90;100.00;55023.84;2066569;28;20042;-65
2022/05/10 01:09:17;;;;;;;1999.90;999.90;;;;;;;-143.90;100.00;55007.97;2066482;28;20119;-64
2022/05/10 01:10:49;;;;;;;1999.90;999.90;;;;;;;-143.90;100.00;55015.91;2067102;28;20569;-64
2022/05/10 01:12:21;;;;;;;1999.90;999.90;;;;;;;-143.90;100.00;55023.84;2050036;28;20038;-65
2022/05/10 01:13:47;;;;;;;1999.90;999.90;;;;;;;-143.90;100.00;55027.81;2050695;28;20049;-65
2022/05/10 01:15:18;;;;;;;1999.90;999.90;;;;;;;-143.90;100.00;55007.97;2041533;29;20058;-65
2022/05/10 01:16:39;;;;;;;1999.90;999.90;;;;;;;-143.90;100.00;55021.88;2046261;28;20043;-65
2022/05/10 01:17:59;;;;;;;1999.90;999.90;;;;;;;-143.90;100.00;55039.75;2049542;28;20451;-65
2022/05/10 01:19:20;;;;;;;1999.90;999.90;;;;;;;-143.90;100.00;55039.75;2049429;28;20117;-65
2022/05/10 01:20:43;;;;;;;1999.90;999.90;;;;;;;-143.90;100.00;55019.88;2049165;28;20294;-65
2022/05/10 01:22:37;;;;;;;1999.90;999.90;;;;;;;-143.90;100.00;54984.16;2050190;28;20110;-65
2022/05/10 01:24:16;;;;;;;1999.90;999.90;;;;;;;-143.90;100.00;54960.31;2049749;28;20046;-65
2022/05/10 01:25:49;;;;;;;1999.90;999.90;;;;;;;-143.90;100.00;54968.25;2045485;28;20038;-65
2022/05/10 01:27:13;;;;;;;1999.90;999.90;;;;;;;-143.90;100.00;55015.91;2049859;28;20120;-65
2022/05/10 01:28:44;;;;;;;1999.90;999.90;;;;;;;-143.90;100.00;55007.97;2048710;28;20038;-64
2022/05/10 01:30:10;;;;;;;1999.90;999.90;;;;;;;-143.90;100.00;54994.06;2048914;28;20395;-67
2022/05/10 01:31:34;;;;;;;1999.90;999.90;;;;;;;-143.90;100.00;54972.22;2049945;28;20070;-67
2022/05/10 01:34:40;;;;;;;1999.90;999.90;;;;;;;-143.90;100.00;55015.91;2049931;28;20069;-65
2022/05/10 01:36:20;;;;;;;1999.90;999.90;;;;;;;-143.90;100.00;55031.78;2047655;28;20046;-66
2022/05/10 01:37:46;;;;;;;1999.90;999.90;;;;;;;-143.90;100.00;55004.00;2046237;28;21003;-66
2022/05/10 01:39:21;;;;;;;1999.90;999.90;;;;;;;-143.90;100.00;55002.00;2045742;28;20039;-67
2022/05/10 01:40:48;;;;;;;1999.90;999.90;;;;;;;-143.90;100.00;55004.00;2046398;28;20406;-64
2022/05/10 01:42:17;;;;;;;1999.90;999.90;;;;;;;-143.90;100.00;55004.00;2050128;28;20054;-65
2022/05/10 01:43:45;;;;;;;1999.90;999.90;;;;;;;-143.90;100.00;54984.16;2050241;28;20054;-67
2022/05/10 01:45:13;;;;;;;1999.90;999.90;;;;;;;-143.90;100.00;55019.88;2055015;28;20974;-65
2022/05/10 01:46:34;;;;;;;1999.90;999.90;;;;;;;-143.90;100.00;55009.97;2043210;28;20577;-65
2022/05/10 01:47:57;;;;;;;1999.90;999.90;;;;;;;-143.90;100.00;54992.09;2048472;28;20038;-65
2022/05/10 01:49:32;;;;;;;1999.90;999.90;;;;;;;-143.90;100.00;55023.84;2049542;28;20034;-65
2022/05/10 01:51:02;;;;;;;1999.90;999.90;;;;;;;-143.90;100.00;54984.16;2050221;28;20113;-65
2022/05/10 01:52:39;;;;;;;1999.90;999.90;;;;;;;-143.90;100.00;55023.84;2047827;28;20139;-65
2022/05/10 01:54:00;;;;;;;1999.90;999.90;;;;;;;-143.90;100.00;55039.75;2048118;28;20030;-65
2022/05/10 01:55:26;;;;;;;1999.90;999.90;;;;;;;-143.90;100.00;55006.00;2051688;28;20034;-65
2022/05/10 01:56:47;;;;;;;1999.90;999.90;;;;;;;-143.90;100.00;54984.16;2050431;28;20057;-65
2022/05/10 01:58:16;;;;;;;1999.90;999.90;;;;;;;-143.90;100.00;54976.19;2046445;28;20038;-65
2022/05/10 01:59:42;;;;;;;1999.90;999.90;;;;;;;-143.90;100.00;55023.84;2049059;28;20038;-65
2022/05/10 02:01:11;;;;;;;1999.90;999.90;;;;;;;-143.90;100.00;54996.06;2054361;28;20810;-65
2022/05/10 02:02:32;;;;;;;1999.90;999.90;;;;;;;-143.90;100.00;55011.94;2047938;28;20058;-65
2022/05/10 02:04:09;;;;;;;1999.90;999.90;;;;;;;-143.90;100.00;55015.91;2048254;28;20038;-65
2022/05/10 02:05:44;;;;;;;1999.90;999.90;;;;;;;-143.90;100.00;55019.88;2048082;28;20062;-65
2022/05/10 02:07:07;;;;;;;1999.90;999.90;;;;;;;-143.90;100.00;55025.84;2049359;28;20118;-64
2022/05/10 02:08:55;;;;;;;1999.90;999.90;;;;;;;-143.90;100.00;55013.94;2047911;28;20039;-65
2022/05/10 02:10:25;;;;;;;1999.90;999.90;;;;;;;-143.90;100.00;55011.94;2045943;28;20081;-64
2022/05/10 02:12:00;;;;;;;1999.90;999.90;;;;;;;-143.90;100.00;55019.88;2053397;28;20140;-65
2022/05/10 02:13:29;;;;;;;1999.90;999.90;;;;;;;-143.90;100.00;55029.81;2055997;28;20041;-65
2022/05/10 02:14:57;;;;;;;1999.90;999.90;;;;;;;-143.90;100.00;55011.94;2058153;28;20042;-64
2022/05/10 02:16:40;;;;;;;1999.90;999.90;;;;;;;-143.90;100.00;55047.69;2057803;28;20446;-65
2022/05/10 02:18:09;;;;;;;1999.90;999.90;;;;;;;-143.90;100.00;55023.84;2050302;28;20035;-66
2022/05/10 02:19:50;;;;;;;1999.90;999.90;;;;;;;-143.90;100.00;55035.78;2062086;28;20037;-66
2022/05/10 02:21:17;;;;;;;1999.90;999.90;;;;;;;-143.90;100.00;55019.88;2057533;28;20148;-66
2022/05/10 02:23:00;;;;;;;1999.90;999.90;;;;;;;-143.90;100.00;55031.78;2056990;28;20042;-66
2022/05/10 02:24:33;;;;;;;1999.90;999.90;;;;;;;-143.90;100.00;54978.19;2058489;28;20116;-66
2022/05/10 02:26:07;;;;;;;1999.90;999.90;;;;;;;-143.90;100.00;55019.88;2055609;28;20133;-67
2022/05/10 02:27:42;;;;;;;1999.90;999.90;;;;;;;-143.90;100.00;55065.56;2055931;28;20477;-65
2022/05/10 02:29:11;;;;;;;1999.90;999.90;;;;;;;-143.90;100.00;55045.69;2062919;28;20821;-65
2022/05/10 02:30:34;;;;;;;1999.90;999.90;;;;;;;-143.90;100.00;55019.88;2056685;28;20050;-65
2022/05/10 02:33:56;;;;;;;1999.90;999.90;;;;;;;-143.90;100.00;54992.09;2059081;28;20552;-66
2022/05/10 02:35:17;;;;;;;1999.90;999.90;;;;;;;-143.90;100.00;55025.84;2057193;28;20045;-66
2022/05/10 02:36:39;;;;;;;1999.90;999.90;;;;;;;-143.90;100.00;55019.88;2054298;28;20038;-65
2022/05/10 02:38:00;;;;;;;;;;;;;;;-143.90;100.00;54988.13;2057731;28;20034;-66
2022/05/10 02:39:21;;;;;;;1999.90;999.90;;;;;;;-143.90;100.00;55033.78;2055779;28;19956;-65
2022/05/10 02:40:43;;;;;;;1999.90;999.90;;;;;;;-143.90;100.00;55051.66;2055911;28;20045;-65
2022/05/10 02:42:06;;;;;;;1999.90;999.90;;;;;;;-143.90;100.00;55015.91;2055492;28;20045;-65
2022/05/10 02:43:29;;;;;;;1999.90;999.90;;;;;;;-143.90;100.00;55039.75;2057774;28;20537;-66
2022/05/10 02:44:54;;;;;;;1999.90;999.90;;;;;;;-143.90;100.00;55025.84;2058890;28;20034;-66
2022/05/10 02:46:16;;;;;;;1999.90;999.90;;;;;;;-143.90;100.00;55035.78;2063061;28;20037;-67
2022/05/10 02:47:40;;;;;;;1999.90;999.90;;;;;;;-143.90;100.00;54988.13;2055849;28;20042;-67
2022/05/10 02:49:01;;;;;;;1999.90;999.90;;;;;;;-143.90;100.00;54996.06;2058407;28;20112;-66
2022/05/10 02:50:26;;;;;;;1999.90;999.90;;;;;;;-143.90;100.00;55002.00;2054365;28;20041;-66
2022/05/10 02:51:47;;;;;;;1999.90;999.90;;;;;;;-143.90;100.00;55007.97;2056071;28;20300;-66
2022/05/10 02:53:08;;;;;;;1999.90;999.90;;;;;;;-143.90;100.00;55025.84;2059088;28;20057;-67
2022/05/10 02:54:29;;;;;;;1999.90;999.90;;;;;;;-143.90;100.00;55002.00;2058125;28;20042;-67
2022/05/10 02:55:55;;;;;;;1999.90;999.90;;;;;;;-143.90;100.00;55039.75;2057669;28;20034;-67
2022/05/10 02:57:15;;;;;;;1999.90;999.90;;;;;;;-143.90;100.00;55037.75;2056743;28;20542;-67
2022/05/10 02:59:00;;;;;;;1999.90;999.90;;;;;;;-143.90;100.00;55043.72;2057023;28;20502;-66
2022/05/10 03:00:22;;;;;;;1999.90;999.90;;;;;;;-143.90;100.00;55027.81;2056292;28;20430;-68
2022/05/10 03:02:01;;;;;;;;;;;;;;;-143.90;100.00;55006.00;2057830;28;22139;-68
2022/05/10 03:03:25;;;;;;;1999.90;999.90;;;;;;;-143.90;100.00;55023.84;2059781;28;20005;-68
2022/05/10 03:04:51;;;;;;;1999.90;999.90;;;;;;;-143.90;100.00;55049.66;2055704;28;20629;-68
2022/05/10 03:06:17;;;;;;;1999.90;999.90;;;;;;;-143.90;100.00;55051.66;2059319;28;20117;-67
2022/05/10 03:07:39;;;;;;;1999.90;999.90;;;;;;;-143.90;100.00;54986.13;2058848;28;20461;-68
2022/05/10 03:09:00;;;;;;;1999.90;999.90;;;;;;;-143.90;100.00;55067.53;2056704;28;20569;-68
2022/05/10 03:10:22;;;;;;;1999.90;999.90;;;;;;;-143.90;100.00;55051.66;2055546;28;20116;-67
2022/05/10 03:11:43;;;;;;;1999.90;999.90;;;;;;;-143.90;100.00;55047.69;2056374;28;20116;-68
2022/05/10 03:13:04;;;;;;;1999.90;999.90;;;;;;;-143.90;100.00;55059.59;2057808;28;20038;-68
2022/05/10 03:14:26;;;;;;;1999.90;999.90;;;;;;;-143.90;100.00;55004.00;2056659;28;20026;-68
2022/05/10 03:15:47;;;;;;;1999.90;999.90;;;;;;;-143.90;100.00;55013.94;2057748;28;20034;-67
2022/05/10 03:17:10;;;;;;;1999.90;999.90;;;;;;;-143.90;100.00;55011.94;2058696;28;20049;-68
2022/05/10 03:18:31;;;;;;;1999.90;999.90;;;;;;;-143.90;100.00;55043.72;2056218;28;20149;-68
2022/05/10 03:19:52;;;;;;;1999.90;999.90;;;;;;;-143.90;100.00;55011.94;2057703;28;20929;-67
2022/05/10 03:21:13;;;;;;;1999.90;999.90;;;;;;;-143.90;100.00;55067.53;2058580;28;20049;-68
2022/05/10 03:22:34;;;;;;;1999.90;999.90;;;;;;;-143.90;100.00;55015.91;2058825;28;20041;-68
2022/05/10 03:23:55;;;;;;;1999.90;999.90;;;;;;;-143.90;100.00;55047.69;2059944;28;20042;-68
2022/05/10 03:25:16;;;;;;;1999.90;999.90;;;;;;;-143.90;100.00;55027.81;2058400;28;22621;-68
2022/05/10 03:26:37;;;;;;;1999.90;999.90;;;;;;;-143.90;100.00;55043.72;2058994;28;20038;-67
2022/05/10 03:27:59;;;;;;;1999.90;999.90;;;;;;;-143.90;100.00;55015.91;2058337;28;20087;-68
2022/05/10 03:29:20;;;;;;;1999.90;999.90;;;;;;;-143.90;100.00;55007.97;2058865;28;20916;-68
2022/05/10 03:30:43;;;;;;;1999.90;999.90;;;;;;;-143.90;100.00;55019.88;2058410;28;20045;-67
2022/05/10 03:32:03;;;;;;;1999.90;999.90;;;;;;;-143.90;100.00;55045.69;2058422;28;20027;-67
2022/05/10 03:33:24;;;;;;;1999.90;999.90;;;;;;;-143.90;100.00;55029.81;2058063;28;20031;-67
2022/05/10 03:34:54;;;;;;;1999.90;999.90;;;;;;;-143.90;100.00;55045.69;2059647;28;20041;-67
2022/05/10 03:36:15;;;;;;;1999.90;999.90;;;;;;;-143.90;100.00;55055.63;2057301;28;20031;-67
2022/05/10 03:37:36;;;;;;;1999.90;999.90;;;;;;;-143.90;100.00;55033.78;2057282;28;20096;-67
2022/05/10 03:38:56;;;;;;;1999.90;999.90;;;;;;;-143.90;100.00;54998.03;2058834;28;20477;-67
2022/05/10 03:40:18;;;;;;;1999.90;999.90;;;;;;;-143.90;100.00;55037.75;2057407;28;20030;-67
2022/05/10 03:41:39;;;;;;;1999.90;999.90;;;;;;;-143.90;100.00;55035.78;2058496;28;20041;-67
2022/05/10 03:43:01;;;;;;;1999.90;999.90;;;;;;;-143.90;100.00;55057.59;2060421;28;20297;-67
2022/05/10 03:44:21;;;;;;;1999.90;999.90;;;;;;;-143.90;100.00;55035.78;2058026;28;20034;-67
2022/05/10 03:45:44;;;;;;;1999.90;999.90;;;;;;;-143.90;100.00;55019.88;2056872;28;20129;-67
2022/05/10 03:47:05;;;;;;;1999.90;999.90;;;;;;;-143.90;100.00;55027.81;2058987;28;20039;-67
2022/05/10 03:48:26;;;;;;;1999.90;999.90;;;;;;;-143.90;100.00;55047.69;2058343;28;20042;-67
2022/05/10 03:49:47;;;;;;;1999.90;999.90;;;;;;;-143.90;100.00;55031.78;2058889;28;20056;-67
2022/05/10 03:51:08;;;;;;;1999.90;999.90;;;;;;;-143.90;100.00;55023.84;2060097;28;20042;-67
2022/05/10 03:52:29;;;;;;;1999.90;999.90;;;;;;;-143.90;100.00;55047.69;2058632;28;20038;-67
2022/05/10 03:53:49;;;;;;;1999.90;999.90;;;;;;;-143.90;100.00;55031.78;2059250;28;20034;-67
2022/05/10 03:55:13;;;;;;;1999.90;999.90;;;;;;;-143.90;100.00;55043.72;2059245;28;20069;-68
2022/05/10 03:56:34;;;;;;;1999.90;999.90;;;;;;;-143.90;100.00;55035.78;2057814;28;20304;-67
2022/05/10 03:57:55;;;;;;;1999.90;999.90;;;;;;;-143.90;100.00;55055.63;2060217;28;20030;-67
2022/05/10 03:59:20;;;;;;;1999.90;999.90;;;;;;;-143.90;100.00;55037.75;2058881;28;20124;-67
2022/05/10 04:00:41;;;;;;;1999.90;999.90;;;;;;;-143.90;100.00;55047.69;2058833;28;20085;-67
2022/05/10 04:02:02;;;;;;;1999.90;999.90;;;;;;;-143.90;100.00;55043.72;2058755;28;20031;-68
2022/05/10 04:03:22;;;;;;;1999.90;999.90;;;;;;;-143.90;100.00;55071.50;2058665;28;20117;-67
2022/05/10 04:04:43;;;;;;;1999.90;999.90;;;;;;;-143.90;100.00;55053.63;2058304;28;20038;-67
2022/05/10 04:06:04;;;;;;;1999.90;999.90;;;;;;;-143.90;100.00;55035.78;2057535;28;20040;-67
2022/05/10 04:07:25;;;;;;;1999.90;999.90;;;;;;;-143.90;100.00;55035.78;2058692;28;21163;-67
2022/05/10 04:08:46;;;;;;;1999.90;999.90;;;;;;;-143.90;100.00;55055.63;2059795;28;20093;-67
2022/05/10 04:10:08;;;;;;;1999.90;999.90;;;;;;;-143.90;100.00;55011.94;2058110;28;20893;-67
2022/05/10 04:11:29;;;;;;;1999.90;999.90;;;;;;;-143.90;100.00;55039.75;2062373;28;20072;-67
2022/05/10 04:12:50;;;;;;;1999.90;999.90;;;;;;;-143.90;100.00;55071.50;2067200;28;20048;-67
2022/05/10 04:14:11;;;;;;;1999.90;999.90;;;;;;;-143.90;100.00;55027.81;2064658;28;20033;-67
2022/05/10 04:15:35;;;;;;;1999.90;999.90;;;;;;;-143.90;100.00;55011.94;2067047;28;20038;-67
2022/05/10 04:16:56;;;;;;;1999.90;999.90;;;;;;;-143.90;100.00;55047.69;2066815;28;20125;-67
2022/05/10 04:18:16;;;;;;;1999.90;999.90;;;;;;;-143.90;100.00;55059.59;2066805;28;20038;-67
2022/05/10 04:19:37;;;;;;;1999.90;999.90;;;;;;;-143.90;100.00;55049.66;2067597;28;20335;-67
2022/05/10 04:20:58;;;;;;;1999.90;999.90;;;;;;;-143.90;100.00;55033.78;2066560;28;20045;-67
2022/05/10 04:22:19;;;;;;;1999.90;999.90;;;;;;;-143.90;100.00;55023.84;2065984;28;20038;-67
2022/05/10 04:23:40;;;;;;;1999.90;999.90;;;;;;;-143.90;100.00;55043.72;2067575;28;20128;-67
2022/05/10 04:25:01;;;;;;;1999.90;999.90;;;;;;;-143.90;100.00;55031.78;2067294;28;20477;-67
2022/05/10 04:26:22;;;;;;;1999.90;999.90;;;;;;;-143.90;100.00;55027.81;2067191;28;20066;-67
2022/05/10 04:27:43;;;;;;;1999.90;999.90;;;;;;;-143.90;100.00;55057.59;2066391;28;20520;-67
2022/05/10 04:29:04;;;;;;;1999.90;999.90;;;;;;;-143.90;100.00;54996.06;2065461;28;20531;-67
2022/05/10 04:30:25;;;;;;;1999.90;999.90;;;;;;;-143.90;100.00;55029.81;2067493;28;20280;-67
2022/05/10 04:31:46;;;;;;;1999.90;999.90;;;;;;;-143.90;100.00;55035.78;2068040;28;20539;-67
2022/05/10 04:33:07;;;;;;;1999.90;999.90;;;;;;;-143.90;100.00;55000.03;2068878;28;20076;-67
2022/05/10 04:34:28;;;;;;;1999.90;999.90;;;;;;;-143.90;100.00;55004.00;2066502;28;20707;-66
2022/05/10 04:35:49;;;;;;;1999.90;999.90;;;;;;;-143.90;100.00;55057.59;2067311;28;20458;-67
2022/05/10 04:37:10;;;;;;;1999.90;999.90;;;;;;;-143.90;100.00;55023.84;2067269;28;20042;-67
2022/05/10 04:38:31;;;;;;;1999.90;999.90;;;;;;;-143.90;100.00;54988.13;2066257;28;20041;-67
2022/05/10 04:41:33;;;;;;;1999.90;999.90;;;;;;;-143.90;100.00;55004.00;2067937;28;20053;-66
2022/05/10 04:42:54;;;;;;;1999.90;999.90;;;;;;;-143.90;100.00;55019.88;2066438;28;20038;-67
2022/05/10 04:44:15;;;;;;;1999.90;999.90;;;;;;;-143.90;100.00;55029.81;2067352;28;20029;-67
2022/05/10 04:45:38;;;;;;;1999.90;999.90;;;;;;;-143.90;100.00;54988.13;2066903;28;20920;-67
2022/05/10 04:46:59;;;;;;;1999.90;999.90;;;;;;;-143.90;100.00;55043.72;2069022;28;20042;-67
2022/05/10 04:48:19;;;;;;;1999.90;999.90;;;;;;;-143.90;100.00;55035.78;2067523;28;20034;-67
2022/05/10 04:49:40;;;;;;;1999.90;999.90;;;;;;;-143.90;100.00;55035.78;2067494;28;20176;-67
2022/05/10 04:51:05;;;;;;;1999.90;999.90;;;;;;;-143.90;100.00;55027.81;2066093;28;20037;-68
2022/05/10 04:52:25;;;;;;;1999.90;999.90;;;;;;;-143.90;100.00;55051.66;2066411;28;20276;-67
2022/05/10 04:53:47;;;;;;;1999.90;999.90;;;;;;;-143.90;100.00;55015.91;2066736;28;20073;-65
2022/05/10 04:55:09;;;;;;;1999.90;999.90;;;;;;;-143.90;100.00;55025.84;2066735;28;20025;-67
2022/05/10 04:56:30;;;;;;;1999.90;999.90;;;;;;;-143.90;100.00;55035.78;2067587;28;20042;-67
2022/05/10 04:57:50;;;;;;;1999.90;999.90;;;;;;;-143.90;100.00;55000.03;2066808;28;20034;-66
2022/05/10 04:59:15;;;;;;;1999.90;999.90;;;;;;;-143.90;100.00;55055.63;2067209;28;20036;-66
2022/05/10 05:00:35;;;;;;;1999.90;999.90;;;;;;;-143.90;100.00;55043.72;2066929;28;20038;-66
2022/05/10 05:01:56;;;;;;;1999.90;999.90;;;;;;;-143.90;100.00;54988.13;2065947;28;20490;-66
2022/05/10 05:03:17;;;;;;;1999.90;999.90;;;;;;;-143.90;100.00;55053.63;2066209;28;20026;-69
2022/05/10 05:04:41;;;;;;;1999.90;999.90;;;;;;;-143.90;100.00;55031.78;2066184;28;20086;-67
2022/05/10 05:06:03;;;;;;;1999.90;999.90;;;;;;;-143.90;100.00;55002.00;2066663;28;20084;-66
2022/05/10 05:07:23;;;;;;;1999.90;999.90;;;;;;;-143.90;100.00;55035.78;2065718;28;20037;-66
2022/05/10 05:09:03;;;;;;;1999.90;999.90;;;;;;;-143.90;100.00;55004.00;2065352;28;20042;-66
2022/05/10 05:10:24;;;;;;;1999.90;999.90;;;;;;;-143.90;100.00;54998.03;2067326;28;20155;-65
2022/05/10 05:11:45;;;;;;;;;;;;;;;-143.90;100.00;54956.34;2066616;28;20136;-65
2022/05/10 05:13:06;;;;;;;1999.90;999.90;;;;;;;-143.90;100.00;55000.03;2062555;28;20347;-65
2022/05/10 05:14:27;;;;;;;1999.90;999.90;;;;;;;-143.90;100.00;54972.22;2064846;28;20068;-65
2022/05/10 05:15:47;;;;;;;1999.90;999.90;;;;;;;-143.90;100.00;54980.19;2066825;28;20046;-65
2022/05/10 05:17:08;;;;;;;1999.90;999.90;;;;;;;-143.90;100.00;55004.00;2067373;28;20033;-65
2022/05/10 05:18:29;;;;;;;1999.90;999.90;;;;;;;-143.90;100.00;54972.22;2069788;28;20068;-65
2022/05/10 05:19:50;;;;;;;1999.90;999.90;;;;;;;-143.90;100.00;55015.91;2068178;28;20153;-65
2022/05/10 05:21:11;;;;;;;1999.90;999.90;;;;;;;-143.90;100.00;55007.97;2067013;28;20033;-65
2022/05/10 05:22:32;;;;;;;1999.90;999.90;;;;;;;-143.90;100.00;54988.13;2066985;28;20300;-65
2022/05/10 05:23:53;;;;;;;1999.90;999.90;;;;;;;-143.90;100.00;55011.94;2066838;28;20037;-65
2022/05/10 05:25:13;;;;;;;1999.90;999.90;;;;;;;-143.90;100.00;54944.44;2065321;28;20069;-63
2022/05/10 05:26:34;;;;;;;1999.90;999.90;;;;;;;-143.90;100.00;55023.84;2065833;28;20026;-64
2022/05/10 05:27:55;;;;;;;1999.90;999.90;;;;;;;-143.90;100.00;54986.13;2068192;28;20044;-64
2022/05/10 05:29:16;;;;;;;1999.90;999.90;;;;;;;-143.90;100.00;55009.97;2066939;28;20025;-63
2022/05/10 05:30:38;;;;;;;1999.90;999.90;;;;;;;-143.90;100.00;55013.94;2068115;28;20133;-64
2022/05/10 05:32:00;;;;;;;1999.90;999.90;;;;;;;-143.90;100.00;55004.00;2070456;28;20028;-64
2022/05/10 05:33:20;;;;;;;1999.90;999.90;;;;;;;-143.90;100.00;55002.00;2057287;28;20478;-63
2022/05/10 05:34:41;;;;;;;1999.90;999.90;;;;;;;-143.90;100.00;54976.19;2064521;28;20040;-64
2022/05/10 05:36:02;;;;;;;1999.90;999.90;;;;;;;-143.90;100.00;55004.00;2065988;28;20034;-64
2022/05/10 05:37:32;;;;;;;1999.90;999.90;;;;;;;-143.90;100.00;54988.13;2065679;28;20068;-64
2022/05/10 05:38:53;;;;;;;1999.90;999.90;;;;;;;-143.90;100.00;54980.19;2064765;28;20033;-64
2022/05/10 05:40:16;;;;;;;1999.90;999.90;;;;;;;-143.90;100.00;55000.03;2065289;28;20037;-64
2022/05/10 05:41:36;;;;;;;1999.90;999.90;;;;;;;-143.90;100.00;55015.91;2065480;28;20041;-64
2022/05/10 05:42:57;;;;;;;1999.90;999.90;;;;;;;-143.90;100.00;54992.09;2065962;28;20041;-64
2022/05/10 05:44:18;;;;;;;1999.90;999.90;;;;;;;-143.90;100.00;54956.34;2066375;28;20068;-64
2022/05/10 05:45:38;;;;;;;1999.90;999.90;;;;;;;-143.90;100.00;55023.84;2066448;28;20033;-64
2022/05/10 05:47:03;;;;;;;1999.90;999.90;;;;;;;-143.90;100.00;54986.13;2066373;28;20072;-64
2022/05/10 05:48:23;;;;;;;1999.90;999.90;;;;;;;-143.90;100.00;54994.06;2065381;28;20080;-65
2022/05/10 05:49:44;;;;;;;1999.90;999.90;;;;;;;-143.90;100.00;54948.41;2066848;28;20034;-64
2022/05/10 05:51:05;;;;;;;1999.90;999.90;;;;;;;-143.90;100.00;54956.34;2064659;28;20520;-64
2022/05/10 05:52:26;;;;;;;1999.90;999.90;;;;;;;-143.90;100.00;54984.16;2066376;28;20068;-64
2022/05/10 05:53:47;;;;;;;1999.90;999.90;;;;;;;-143.90;100.00;54964.28;2067069;28;20068;-64
2022/05/10 05:55:08;;;;;;;1999.90;999.90;;;;;;;-143.90;100.00;54956.34;2066390;28;20057;-64
2022/05/10 05:56:29;;;;;;;;;;;;;;;-143.90;100.00;54968.25;2066468;28;21077;-64
2022/05/10 05:57:49;;;;;;;1999.90;999.90;;;;;;;-143.90;100.00;54952.38;2064852;28;19954;-64
2022/05/10 05:59:10;;;;;;;1999.90;999.90;;;;;;;-143.90;99.81;54932.53;2066387;28;20040;-65
2022/05/10 06:00:31;;;;;;;1999.90;999.90;;;;;;;-143.90;98.58;54946.41;2066422;28;20029;-65
2022/05/10 06:01:52;;;;;;;1999.90;999.90;;;;;;;-143.90;96.36;54938.47;2066677;28;20041;-65
2022/05/10 06:03:13;;;;;;;1999.90;999.90;;;;;;;-143.90;94.03;54980.19;2065871;28;20029;-66
2022/05/10 06:04:33;;;;;;;1999.90;999.90;;;;;;;-143.90;93.58;54942.44;2066450;28;20117;-65
2022/05/10 06:05:54;;;;;;;1999.90;999.90;;;;;;;-143.90;93.69;54904.72;2065888;28;20699;-65
2022/05/10 06:07:15;;;;;;;1999.90;999.90;;;;;;;-143.90;93.48;54944.44;2066253;28;20048;-65
2022/05/10 06:08:36;;;;;;;1999.90;999.90;;;;;;;-143.90;93.67;54954.38;2065193;28;20449;-65